Time;durP1;ratioP1;P1;durP2;ratioP2;P2;SDS_P1;SDS_P2;PMS_P1;PMS_P2;Temp;Humidity;BMP_temperature;BMP_pressure;BME280_temperature;BME280_humidity;BME280_pressure;Samples;Min_cycle;Max_cycle;Signal;HPM_P1;HPM_P2
2022/08/24 00:00:27;;;;;;;4.30;2.70;;;25.30;48.30;;;25.68;35.82;98763.78;5020551;27;124465;-78
2022/08/24 00:02:54;;;;;;;7.10;2.80;;;25.20;48.50;;;25.64;36.18;98756.56;5021589;27;123823;-78
2022/08/24 00:05:20;;;;;;;3.10;2.47;;;25.20;48.90;;;25.61;36.27;98755.38;5030187;28;114150;-78
2022/08/24 00:07:49;;;;;;;5.67;3.10;;;25.20;48.90;;;25.61;36.28;98754.56;5024788;28;114018;-76
2022/08/24 00:10:17;;;;;;;4.43;2.50;;;25.20;49.00;;;25.61;36.37;98754.56;5023894;28;124746;-76
2022/08/24 00:12:44;;;;;;;5.60;2.63;;;25.20;49.20;;;25.60;36.52;98752.94;5025802;28;123864;-77
2022/08/24 00:15:13;;;;;;;4.83;2.90;;;25.20;49.20;;;25.57;36.42;98749.72;5026732;28;114213;-76
2022/08/24 00:17:39;;;;;;;2.53;2.07;;;25.10;49.20;;;25.55;36.60;98757.84;5030612;27;113262;-77
2022/08/24 00:20:10;;;;;;;3.40;2.60;;;25.10;49.20;;;25.52;36.42;98757.84;5033010;27;124579;-76
2022/08/24 00:22:38;;;;;;;3.00;2.43;;;25.10;49.40;;;25.50;36.51;98743.31;5030464;27;122944;-78
2022/08/24 00:25:06;;;;;;;5.33;2.23;;;25.10;49.40;;;25.48;36.48;98749.38;5028118;28;115223;-76
2022/08/24 00:27:33;;;;;;;3.50;2.50;;;25.10;49.50;;;25.48;36.72;98745.75;5029594;28;115002;-78
2022/08/24 00:30:00;;;;;;;5.03;2.67;;;25.10;49.50;;;25.46;36.59;98751.81;5020565;28;123959;-79
2022/08/24 00:32:28;;;;;;;4.40;2.50;;;25.10;49.60;;;25.45;36.47;98753.06;5016475;28;123781;-77
2022/08/24 00:34:55;;;;;;;4.17;2.90;;;25.10;49.70;;;25.41;36.50;98751.47;5027879;28;114208;-78
2022/08/24 00:37:22;;;;;;;5.17;2.70;;;25.00;49.70;;;25.39;36.77;98751.06;5026084;28;114090;-78
2022/08/24 00:39:49;;;;;;;4.67;2.80;;;25.00;49.80;;;25.37;36.71;98751.50;5029469;28;124106;-78
2022/08/24 00:42:18;;;;;;;4.80;2.70;;;25.00;50.00;;;25.34;37.01;98741.81;5015991;28;124086;-80
2022/08/24 00:44:45;;;;;;;4.17;2.33;;;25.00;50.20;;;25.33;36.92;98757.19;5020010;28;113525;-78
2022/08/24 00:47:24;;;;;;;4.33;2.70;;;24.90;50.10;;;25.28;37.03;98753.94;5012600;28;114037;-76
2022/08/24 00:50:00;;;;;;;2.57;2.37;;;24.90;50.20;;;25.24;37.26;98753.19;5012679;28;124158;-78
2022/08/24 00:52:37;;;;;;;3.70;2.90;;;24.90;50.40;;;25.21;37.05;98759.66;5010505;27;124476;-76
2022/08/24 00:55:22;;;;;;;3.43;2.67;;;24.80;50.30;;;25.17;37.54;98750.38;5017563;28;114353;-77
2022/08/24 00:57:59;;;;;;;5.60;2.63;;;24.80;50.40;;;25.13;37.04;98748.34;5020229;27;113963;-79
2022/08/24 01:00:31;;;;;;;5.77;2.63;;;24.80;50.50;;;25.10;37.08;98749.19;5009910;28;123334;-78
2022/08/24 01:03:03;;;;;;;5.30;2.67;;;24.70;50.60;;;25.08;37.14;98750.81;5014869;28;123893;-78
2022/08/24 01:05:36;;;;;;;4.40;2.93;;;24.70;50.60;;;25.04;37.56;98758.50;5018347;28;114204;-77
2022/08/24 01:08:07;;;;;;;4.80;2.83;;;24.70;50.70;;;25.00;37.47;98750.03;5016748;28;114152;-77
2022/08/24 01:11:07;;;;;;;3.83;2.87;;;24.60;50.70;;;24.99;37.53;98751.25;5010550;28;123353;-79
2022/08/24 01:13:34;;;;;;;3.93;2.77;;;24.60;50.90;;;24.94;37.56;98753.72;5019739;27;124324;-76
2022/08/24 01:16:06;;;;;;;3.70;2.60;;;24.50;51.00;;;24.89;38.12;98741.59;5024811;28;115310;-78
2022/08/24 01:18:49;;;;;;;4.87;3.23;;;24.50;51.20;;;24.84;38.17;98749.69;5018586;27;113178;-76
2022/08/24 01:21:34;;;;;;;4.23;3.10;;;24.50;51.50;;;24.77;38.05;98752.53;5022713;28;124289;-78
2022/08/24 01:24:05;;;;;;;23.03;4.43;;;24.40;51.70;;;24.70;38.67;98759.03;5020611;28;123494;-76
2022/08/24 01:26:46;;;;;;;6.27;3.30;;;24.30;52.10;;;24.61;38.83;98758.66;5015328;28;114539;-76
2022/08/24 01:29:18;;;;;;;3.20;2.60;;;24.20;52.60;;;24.58;39.21;98763.13;5013806;28;114009;-76
2022/08/24 01:31:45;;;;;;;3.93;2.73;;;24.20;52.70;;;24.56;39.33;98765.53;5013985;28;124208;-76
2022/08/24 01:34:12;;;;;;;4.43;2.90;;;24.10;52.90;;;24.51;39.25;98768.78;5013261;28;123340;-75
2022/08/24 01:36:45;;;;;;;2.93;2.50;;;24.10;53.10;;;24.49;39.56;98761.94;5013342;28;114862;-76
2022/08/24 01:39:29;;;;;;;5.27;2.93;;;24.10;53.30;;;24.45;39.46;98765.56;5011288;28;113379;-77
2022/08/24 01:41:56;;;;;;;3.63;2.80;;;24.00;53.40;;;24.43;39.70;98767.16;5014302;28;123740;-76
2022/08/24 01:44:25;;;;;;;3.63;2.80;;;24.00;53.60;;;24.39;39.75;98766.34;5015508;28;123625;-76
2022/08/24 01:46:54;;;;;;;4.97;3.00;;;24.00;53.80;;;24.37;40.06;98768.78;5025505;28;114476;-76
2022/08/24 01:49:28;;;;;;;5.47;2.80;;;23.90;54.00;;;24.33;40.25;98773.63;5012098;28;113526;-76
2022/08/24 01:51:56;;;;;;;4.10;3.37;;;23.90;54.20;;;24.30;40.28;98768.78;5022564;28;122817;-78
2022/08/24 01:54:24;;;;;;;4.67;3.43;;;23.90;54.30;;;24.28;40.45;98766.38;5015950;28;124328;-76
2022/08/24 01:56:50;;;;;;;3.63;2.73;;;23.90;54.40;;;24.28;40.42;98765.56;5017346;27;114797;-75
2022/08/24 01:59:19;;;;;;;5.67;2.90;;;23.80;54.50;;;24.28;40.42;98765.56;5017856;28;114652;-76
2022/08/24 02:01:57;;;;;;;3.67;2.90;;;23.90;54.60;;;24.25;40.51;98762.34;5004843;28;123350;-76
2022/08/24 02:04:24;;;;;;;6.03;3.00;;;23.80;54.60;;;24.24;40.40;98769.19;5013617;28;123573;-77
2022/08/24 02:06:50;;;;;;;2.80;2.07;;;23.80;55.30;;;24.23;40.40;98764.78;5015591;28;115228;-79
2022/08/24 02:09:17;;;;;;;4.07;3.03;;;23.80;54.70;;;24.23;40.47;98770.44;5008907;28;115641;-76
2022/08/24 02:11:44;;;;;;;5.50;2.83;;;25.00;55.90;;;24.21;40.77;98777.69;5012990;28;124630;-76
2022/08/24 02:14:10;;;;;;;3.23;2.87;;;23.80;54.90;;;24.18;40.68;98773.66;5011838;28;122424;-77
2022/08/24 02:16:37;;;;;;;3.80;3.00;;;23.80;55.00;;;24.16;40.83;98781.72;5009037;28;114301;-77
2022/08/24 02:19:03;;;;;;;4.70;2.77;;;23.70;55.10;;;24.14;40.96;98789.78;5014368;27;113326;-75
2022/08/24 02:21:30;;;;;;;6.03;3.20;;;23.70;55.30;;;24.12;40.89;98783.72;5008627;28;124131;-75
2022/08/24 02:23:57;;;;;;;4.93;3.40;;;23.70;55.50;;;24.08;41.29;98785.75;5016433;28;123823;-76
2022/08/24 02:26:23;;;;;;;5.67;3.60;;;23.70;55.70;;;24.05;41.44;98780.91;5009666;28;114279;-77
2022/08/24 02:28:50;;;;;;;4.93;3.20;;;23.60;55.90;;;24.01;41.56;98783.72;5015934;28;113208;-76
2022/08/24 02:31:17;;;;;;;5.87;3.97;;;23.60;56.00;;;23.99;41.71;98794.63;5010231;28;124039;-76
2022/08/24 02:33:43;;;;;;;6.20;4.10;;;23.60;56.20;;;23.94;41.76;98786.56;5020443;27;123056;-75
2022/08/24 02:36:12;;;;;;;8.20;4.53;;;23.60;56.40;;;23.92;42.08;98783.34;5022646;28;114297;-76
2022/08/24 02:38:39;;;;;;;7.13;4.60;;;23.60;56.70;;;23.91;42.09;98786.53;5012758;28;112606;-75
2022/08/24 02:41:05;;;;;;;4.50;3.50;;;23.50;56.70;;;23.88;42.09;98787.34;5013779;28;124535;-76
2022/08/24 02:43:32;;;;;;;4.20;3.20;;;23.50;56.80;;;23.85;42.17;98783.31;5043899;27;124089;-76
2022/08/24 02:45:59;;;;;;;8.50;4.10;;;23.50;57.00;;;23.83;42.31;98779.28;5011274;28;114188;-76
2022/08/24 02:48:25;;;;;;;4.00;3.43;;;23.40;57.10;;;23.79;42.16;98776.47;5009035;28;114244;-75
2022/08/24 02:50:53;;;;;;;5.33;2.90;;;23.40;57.20;;;23.76;42.44;98771.63;5025785;28;124507;-75
2022/08/24 02:53:21;;;;;;;5.87;3.63;;;23.40;57.40;;;23.75;42.64;98772.81;5025676;27;123964;-76
2022/08/24 02:55:48;;;;;;;5.03;4.00;;;23.40;57.60;;;23.74;42.71;98776.88;5029878;28;114200;-76
2022/08/24 02:58:16;;;;;;;7.37;4.27;;;23.40;57.70;;;23.72;42.59;98777.28;5024269;28;114065;-77
2022/08/24 03:00:46;;;;;;;4.43;3.40;;;23.30;57.70;;;23.70;42.76;98776.03;5017475;27;124060;-75
2022/08/24 03:03:13;;;;;;;5.53;3.60;;;23.30;57.80;;;23.69;42.89;98774.41;5013004;27;123889;-76
2022/08/24 03:05:40;;;;;;;6.10;3.40;;;23.30;58.60;;;23.67;42.70;98788.94;5019888;28;114642;-77
2022/08/24 03:08:07;;;;;;;7.60;3.57;;;23.30;58.00;;;23.64;42.77;98778.44;5019692;28;113092;-77
2022/08/24 03:10:33;;;;;;;3.40;2.97;;;23.20;58.00;;;23.61;42.79;98773.59;5014472;28;123623;-76
2022/08/24 03:13:00;;;;;;;4.33;3.00;;;23.20;58.00;;;23.58;42.62;98777.22;5012285;28;123859;-76
2022/08/24 03:15:28;;;;;;;6.27;2.77;;;23.20;57.90;;;23.54;42.28;98767.97;5008227;28;114484;-77
2022/08/24 03:17:55;;;;;;;3.40;3.07;;;23.10;57.60;;;23.52;41.98;98767.53;5018776;28;113935;-76
2022/08/24 03:20:23;;;;;;;3.40;2.97;;;23.10;57.30;;;23.49;41.92;98771.16;5040221;27;124515;-80
2022/08/24 03:22:50;;;;;;;3.33;2.70;;;23.10;57.20;;;23.48;41.95;98769.53;5012894;28;124326;-78
2022/08/24 03:25:20;;;;;;;3.10;2.70;;;23.10;57.20;;;23.46;41.80;98769.97;5011222;28;113603;-77
2022/08/24 03:27:47;;;;;;;6.23;2.70;;;23.00;57.00;;;23.43;41.80;98767.13;5022955;28;114231;-76
2022/08/24 03:30:16;;;;;;;4.53;2.73;;;23.00;57.60;;;23.42;41.78;98776.78;5012078;28;124075;-78
2022/08/24 03:32:43;;;;;;;4.80;3.43;;;23.00;57.10;;;23.41;42.01;98778.00;5010578;28;123110;-77
2022/08/24 03:35:12;;;;;;;5.37;3.50;;;23.00;57.90;;;23.38;42.11;98771.16;5015253;28;114291;-78
2022/08/24 03:37:39;;;;;;;3.40;2.70;;;23.00;57.40;;;23.36;42.13;98771.53;5024871;28;114375;-77
2022/08/24 03:40:10;;;;;;;4.50;2.33;;;23.00;57.50;;;23.35;42.20;98771.94;5019018;27;125261;-78
2022/08/24 03:42:37;;;;;;;3.87;3.00;;;22.90;57.50;;;23.34;42.35;98770.31;5027224;27;123753;-77
2022/08/24 03:45:05;;;;;;;4.60;2.83;;;22.90;57.60;;;23.32;42.33;98767.91;5016101;27;114331;-77
2022/08/24 03:47:32;;;;;;;4.93;2.90;;;22.90;57.70;;;23.30;42.34;98770.31;5025510;28;114835;-77
2022/08/24 03:49:58;;;;;;;4.13;2.70;;;22.90;57.80;;;23.29;42.58;98762.25;5028074;27;123884;-78
2022/08/24 03:52:27;;;;;;;4.83;3.03;;;22.90;58.00;;;23.27;42.68;98767.50;5021102;28;123972;-77
2022/08/24 03:54:56;;;;;;;4.13;3.30;;;22.80;58.10;;;23.24;42.51;98771.94;5016281;28;114264;-76
2022/08/24 03:57:23;;;;;;;8.23;3.30;;;22.80;58.10;;;23.22;42.54;98771.50;5016425;28;113976;-77
2022/08/24 03:59:50;;;;;;;5.67;3.03;;;22.80;58.10;;;23.19;42.78;98769.50;5014817;27;124131;-76
2022/08/24 04:02:16;;;;;;;4.57;2.90;;;22.80;58.10;;;23.19;42.45;98775.13;5009877;27;123703;-78
2022/08/24 04:04:43;;;;;;;4.70;3.13;;;22.80;58.10;;;23.17;42.49;98782.38;5020414;27;114290;-77
2022/08/24 04:07:09;;;;;;;5.00;2.73;;;22.80;58.20;;;23.14;42.61;98773.50;5008403;28;114280;-77
2022/08/24 04:09:36;;;;;;;4.40;3.13;;;22.80;58.10;;;23.12;42.37;98775.91;5010608;28;124043;-77
2022/08/24 04:12:03;;;;;;;4.63;2.80;;;22.70;58.00;;;23.11;42.62;98779.13;5007374;28;123848;-77
2022/08/24 04:14:29;;;;;;;3.17;2.67;;;22.70;58.10;;;23.08;42.42;98775.09;5012953;27;114099;-76
2022/08/24 04:16:56;;;;;;;4.63;2.93;;;22.70;58.10;;;23.07;42.63;98772.66;5009609;28;113836;-78
2022/08/24 04:19:23;;;;;;;3.63;3.03;;;22.70;58.20;;;23.06;42.57;98785.94;5029137;27;124275;-77
2022/08/24 04:21:50;;;;;;;4.23;2.87;;;22.70;58.20;;;23.06;42.55;98782.34;5010365;27;124225;-77
2022/08/24 04:24:16;;;;;;;5.03;2.53;;;22.60;58.20;;;23.04;42.56;98777.06;5007205;28;114587;-76
2022/08/24 04:26:43;;;;;;;5.27;3.00;;;22.60;58.20;;;23.02;42.64;98779.47;5023308;28;114301;-77
2022/08/24 04:29:13;;;;;;;4.93;2.77;;;22.60;58.20;;;23.00;42.77;98786.72;5007042;28;123908;-77
2022/08/24 04:31:44;;;;;;;4.60;3.10;;;22.60;58.30;;;22.98;42.63;98786.31;5006830;28;123614;-77
2022/08/24 04:34:12;;;;;;;4.87;3.17;;;22.50;58.20;;;22.96;42.47;98794.31;5014435;28;114489;-77
2022/08/24 04:36:41;;;;;;;3.33;2.47;;;22.60;58.40;;;22.96;42.83;98788.69;5010695;28;114921;-77
2022/08/24 04:39:07;;;;;;;3.77;2.97;;;22.50;58.40;;;22.94;42.47;98792.72;5015755;28;124095;-75
2022/08/24 04:41:35;;;;;;;5.00;3.10;;;22.50;58.50;;;22.94;42.94;98792.72;5025982;28;123669;-75
2022/08/24 04:44:02;;;;;;;4.43;3.00;;;22.50;58.50;;;22.92;42.81;98795.13;5020385;28;114299;-75
2022/08/24 04:46:29;;;;;;;4.07;2.70;;;22.50;58.60;;;22.93;42.68;98799.53;5010124;28;114228;-75
2022/08/24 04:48:56;;;;;;;3.30;2.67;;;22.50;58.70;;;22.92;42.71;98805.59;5009274;28;124151;-75
2022/08/24 04:51:22;;;;;;;5.80;2.47;;;22.50;58.70;;;22.92;43.10;98795.13;5011878;28;124039;-75
2022/08/24 04:53:50;;;;;;;6.00;3.10;;;22.50;58.80;;;22.92;43.30;98803.56;5019958;27;114243;-76
2022/08/24 04:56:23;;;;;;;3.80;2.90;;;22.50;59.00;;;22.89;43.47;98801.56;5011358;28;113938;-75
2022/08/24 04:58:52;;;;;;;6.13;3.50;;;22.40;59.20;;;22.85;43.25;98812.00;5012650;28;124106;-76
2022/08/24 05:01:23;;;;;;;4.13;2.73;;;22.40;59.30;;;22.83;43.26;98808.75;5022877;27;123552;-75
2022/08/24 05:03:53;;;;;;;5.17;3.00;;;22.40;59.40;;;22.83;43.33;98811.56;5021095;27;113963;-77
2022/08/24 05:06:23;;;;;;;7.87;3.10;;;22.40;59.60;;;22.82;43.33;98809.97;5012943;28;113892;-76
2022/08/24 05:08:50;;;;;;;4.73;3.13;;;22.40;59.70;;;22.83;43.55;98820.03;5014834;28;123877;-76
2022/08/24 05:11:18;;;;;;;5.50;2.93;;;22.30;59.70;;;22.84;43.66;98815.22;5022649;28;123970;-77
2022/08/24 05:13:45;;;;;;;5.63;3.67;;;22.40;59.90;;;22.85;43.47;98817.63;5018086;28;114846;-75
2022/08/24 05:16:16;;;;;;;4.53;2.83;;;22.30;59.80;;;22.86;43.56;98818.41;5016638;28;113686;-76
2022/08/24 05:18:44;;;;;;;4.50;3.57;;;22.40;59.90;;;22.88;43.56;98813.22;5020224;27;124012;-76
2022/08/24 05:21:16;;;;;;;4.47;3.20;;;22.40;59.90;;;22.90;43.42;98820.06;5038100;27;123173;-76
2022/08/24 05:23:44;;;;;;;5.83;3.83;;;22.40;60.00;;;22.90;43.80;98814.44;5016826;28;115302;-76
2022/08/24 05:26:17;;;;;;;7.20;3.50;;;22.40;60.10;;;22.94;43.67;98820.91;5016747;28;114810;-76
2022/08/24 05:28:44;;;;;;;5.90;3.30;;;22.40;60.30;;;22.94;43.59;98820.91;5016485;28;123009;-77
2022/08/24 05:31:21;;;;;;;6.67;4.07;;;22.40;60.30;;;22.94;43.65;98806.81;5014067;28;124367;-77
2022/08/24 05:33:48;;;;;;;4.60;3.40;;;22.40;60.40;;;23.00;43.88;98809.25;5012685;28;114298;-77
2022/08/24 05:36:38;;;;;;;7.63;2.90;;;22.50;60.60;;;23.03;43.54;98819.75;5009491;28;114036;-76
2022/08/24 05:39:09;;;;;;;8.10;3.40;;;22.50;60.60;;;23.08;43.51;98808.91;5021404;27;124138;-76
2022/08/24 05:41:36;;;;;;;4.43;3.37;;;22.50;60.60;;;23.12;43.83;98814.56;5015112;28;123841;-78
2022/08/24 05:44:02;;;;;;;6.70;3.50;;;22.60;60.60;;;23.16;43.57;98809.75;5028503;28;114381;-76
2022/08/24 05:46:30;;;;;;;4.63;3.27;;;22.60;60.60;;;23.20;43.12;98816.19;5012172;28;114291;-79
2022/08/24 05:48:58;;;;;;;9.33;3.30;;;22.70;60.60;;;23.25;43.45;98818.63;5018227;28;124947;-77
2022/08/24 05:51:24;;;;;;;3.77;2.83;;;22.70;60.40;;;23.28;43.24;98817.84;5020297;28;123780;-77
2022/08/24 05:53:51;;;;;;;6.23;3.27;;;22.70;60.30;;;23.32;43.27;98823.47;5019832;27;114749;-79
2022/08/24 05:56:19;;;;;;;6.53;3.63;;;22.70;60.30;;;23.35;43.18;98823.50;5019446;28;114033;-76
2022/08/24 05:58:46;;;;;;;5.40;3.10;;;22.80;60.30;;;23.38;42.93;98834.00;5008369;28;124285;-76
2022/08/24 06:01:22;;;;;;;13.07;3.97;;;22.80;60.30;;;23.38;43.05;98838.81;5021316;27;125132;-77
2022/08/24 06:03:50;;;;;;;8.10;3.97;;;22.80;60.30;;;23.36;43.24;98835.59;5032227;27;115079;-77
2022/08/24 06:06:20;;;;;;;9.73;3.33;;;22.80;60.40;;;23.35;43.16;98846.06;5016203;28;113999;-77
2022/08/24 06:08:50;;;;;;;7.80;3.70;;;22.80;60.60;;;23.37;43.36;98840.84;5017582;28;124223;-76
2022/08/24 06:11:28;;;;;;;5.40;3.73;;;22.80;60.60;;;23.43;43.08;98841.25;5014003;28;123570;-76
2022/08/24 06:13:59;;;;;;;5.20;3.30;;;22.90;60.80;;;23.47;43.31;98846.91;5017195;28;115309;-76
2022/08/24 06:16:25;;;;;;;5.20;3.10;;;22.90;60.60;;;23.52;43.20;98840.88;5018799;27;115028;-79
2022/08/24 06:18:53;;;;;;;3.83;3.10;;;22.90;60.60;;;23.56;42.98;98838.84;5043965;27;122146;-76
2022/08/24 06:21:24;;;;;;;7.50;4.57;;;23.00;60.60;;;23.58;42.96;98840.06;5020422;27;124232;-76
2022/08/24 06:23:51;;;;;;;6.37;4.27;;;23.00;60.70;;;23.57;42.96;98841.28;5026716;28;114320;-79
2022/08/24 06:29:07;;;;;;;5.37;3.70;;;23.00;60.70;;;23.60;43.12;98839.69;5022548;28;124585;-79
2022/08/24 06:31:40;;;;;;;4.83;3.33;;;23.00;60.80;;;23.62;43.08;98842.94;5014124;28;126081;-77
2022/08/24 06:34:08;;;;;;;5.17;3.60;;;23.00;60.80;;;23.66;42.93;98829.63;5022365;28;114359;-78
2022/08/24 06:36:35;;;;;;;5.37;3.40;;;23.10;60.90;;;23.71;42.83;98845.34;5013839;28;114140;-78
2022/08/24 06:39:02;;;;;;;5.10;3.20;;;23.00;60.80;;;23.73;42.69;98843.78;5025832;28;123323;-77
2022/08/24 06:41:29;;;;;;;6.10;3.83;;;23.10;60.80;;;23.76;42.91;98837.34;5011459;28;124026;-77
2022/08/24 06:43:56;;;;;;;4.90;3.03;;;23.10;60.80;;;23.78;42.94;98832.09;5023186;28;113200;-77
2022/08/24 06:46:22;;;;;;;5.03;3.23;;;23.10;60.80;;;23.82;42.64;98837.75;5012613;28;113559;-76
2022/08/24 06:48:50;;;;;;;6.10;3.90;;;23.20;60.90;;;23.91;42.77;98848.63;5015050;28;124095;-77
2022/08/24 06:51:18;;;;;;;10.37;4.03;;;23.20;60.70;;;23.94;42.68;98836.56;5012466;28;124176;-77
2022/08/24 06:53:45;;;;;;;5.50;3.73;;;23.20;60.70;;;23.97;42.67;98842.19;5018907;27;114169;-76
2022/08/24 06:56:12;;;;;;;7.10;4.00;;;23.30;60.70;;;23.99;42.59;98838.97;5016039;28;113999;-77
2022/08/24 06:58:39;;;;;;;7.53;4.67;;;23.30;60.80;;;24.03;42.36;98845.44;5013082;28;123578;-77
2022/08/24 07:01:19;;;;;;;6.10;3.60;;;23.30;60.70;;;24.09;42.33;98843.00;5017768;28;123041;-80
2022/08/24 07:03:46;;;;;;;16.23;4.07;;;23.40;60.70;;;24.17;42.24;98851.06;5011847;28;116380;-79
2022/08/24 07:06:13;;;;;;;7.50;4.00;;;23.50;61.40;;;24.25;41.88;98858.34;5013328;28;114929;-77
2022/08/24 07:08:42;;;;;;;10.37;4.70;;;23.50;60.50;;;24.34;42.03;98859.94;5012028;28;124549;-78
2022/08/24 07:11:09;;;;;;;10.20;4.17;;;23.60;60.50;;;24.42;41.93;98858.72;5010803;28;124284;-76
2022/08/24 07:13:37;;;;;;;7.93;3.97;;;23.60;60.30;;;24.46;41.90;98856.75;5015316;27;114215;-75
2022/08/24 07:16:04;;;;;;;10.80;4.13;;;23.70;60.20;;;24.50;41.84;98854.72;5018257;28;114646;-76
2022/08/24 07:18:32;;;;;;;8.80;3.80;;;23.70;60.10;;;24.59;41.62;98865.63;5014941;27;123991;-77
2022/08/24 07:21:02;;;;;;;9.93;3.73;;;23.80;60.00;;;24.65;41.04;98864.00;5009261;28;123807;-79
2022/08/24 07:23:29;;;;;;;7.30;3.87;;;23.90;59.90;;;24.71;41.09;98862.38;5011277;28;114529;-83
2022/08/24 07:25:56;;;;;;;7.00;3.60;;;23.90;59.70;;;24.81;40.79;98849.44;5020712;28;114083;-85
2022/08/24 07:28:22;;;;;;;6.87;3.50;;;24.00;59.60;;;24.92;40.65;98855.88;5026342;28;124109;-86
2022/08/24 07:30:49;;;;;;;5.00;3.50;;;24.10;59.40;;;25.03;40.39;98856.63;5026178;28;123037;-85
2022/08/24 07:33:15;;;;;;;8.23;4.10;;;24.20;59.00;;;25.17;40.43;98866.31;5014866;27;114426;-83
2022/08/24 07:35:42;;;;;;;6.20;3.97;;;24.40;58.90;;;25.31;40.24;98871.94;5021825;28;113953;-83
2022/08/24 07:38:14;;;;;;;6.43;3.10;;;24.50;58.70;;;25.42;39.94;98872.69;5023229;28;124156;-83
2022/08/24 07:40:46;;;;;;;7.83;3.70;;;24.60;58.30;;;25.56;39.39;98869.78;5014002;28;122596;-83
2022/08/24 07:43:14;;;;;;;9.33;4.40;;;24.70;58.20;;;25.65;39.37;98869.34;5022822;28;113782;-82
2022/08/24 07:45:41;;;;;;;8.57;4.57;;;24.80;58.20;;;25.68;39.50;98873.34;5020064;28;113814;-80
2022/08/24 07:48:08;;;;;;;11.23;4.40;;;24.90;58.30;;;25.69;39.75;98867.31;5024034;28;124012;-79
2022/08/24 07:50:36;;;;;;;7.33;3.80;;;24.90;58.20;;;25.76;39.51;98875.75;5025932;27;122834;-79
2022/08/24 07:53:02;;;;;;;11.40;5.00;;;25.00;58.20;;;25.85;39.53;98866.03;5022419;28;115162;-81
2022/08/24 07:55:29;;;;;;;9.60;4.60;;;25.00;58.00;;;25.93;39.57;98874.06;5007369;28;115109;-80
2022/08/24 07:57:55;;;;;;;8.03;3.50;;;25.10;57.90;;;26.05;39.08;98867.09;5008388;27;123497;-80
2022/08/24 08:00:22;;;;;;;4.27;3.30;;;25.20;57.80;;;26.20;39.27;98876.31;5005870;28;124368;-82
2022/08/24 08:02:49;;;;;;;6.00;3.80;;;25.40;57.50;;;26.33;38.23;98866.09;5013862;27;114104;-83
2022/08/24 08:05:19;;;;;;;7.33;3.87;;;25.50;57.00;;;26.44;37.58;98875.28;5015916;28;113200;-82
2022/08/24 08:07:46;;;;;;;4.03;2.73;;;25.60;56.10;;;26.50;37.71;98872.00;5014815;28;124084;-82
2022/08/24 08:10:13;;;;;;;8.83;3.20;;;25.70;55.70;;;26.59;37.31;98878.81;5010070;28;123535;-81
2022/08/24 08:12:40;;;;;;;3.53;2.80;;;25.80;55.10;;;26.67;36.82;98876.72;5013251;27;114395;-83
2022/08/24 08:15:09;;;;;;;8.40;4.03;;;25.90;54.90;;;26.75;35.87;98874.63;5011552;28;112984;-85
2022/08/24 08:17:37;;;;;;;7.27;2.90;;;26.00;53.90;;;26.77;36.21;98872.19;5015860;28;124032;-83
2022/08/24 08:20:07;;;;;;;5.33;2.90;;;26.00;53.40;;;26.81;36.02;98865.28;5016698;27;123984;-84
2022/08/24 08:25:20;;;;;;;3.33;2.53;;;26.10;52.50;;;26.87;35.67;98868.44;5013997;28;114504;-81
2022/08/24 08:27:47;;;;;;;4.90;2.63;;;26.10;52.40;;;26.91;35.00;98868.41;5027492;28;124128;-82
2022/08/24 08:30:14;;;;;;;5.33;2.70;;;26.20;51.40;;;26.92;35.05;98870.00;5025299;28;123835;-81
2022/08/24 08:32:40;;;;;;;4.70;2.60;;;26.20;51.40;;;26.95;34.95;98871.97;5024300;28;114314;-84
2022/08/24 08:35:07;;;;;;;3.20;2.10;;;26.20;51.30;;;27.00;35.08;98872.34;5028801;27;113188;-81
2022/08/24 08:37:34;;;;;;;3.70;2.53;;;26.30;51.50;;;27.11;34.43;98860.88;5021215;27;124231;-83
2022/08/24 08:40:02;;;;;;;6.70;3.97;;;26.40;51.30;;;27.19;34.23;98868.13;5023817;28;123997;-85
2022/08/24 08:42:43;;;;;;;5.70;2.80;;;26.40;50.90;;;27.19;34.08;98861.63;5013666;28;115138;-81
2022/08/24 08:45:41;;;;;;;3.53;2.50;;;26.50;50.30;;;27.17;34.45;98862.06;5011839;28;114820;-82
2022/08/24 08:48:38;;;;;;;4.10;2.67;;;26.60;50.20;;;27.24;34.14;98852.63;5022312;28;123331;-83
2022/08/24 08:51:39;;;;;;;5.47;2.50;;;26.60;50.00;;;27.32;33.80;98857.00;5020693;28;124092;-84
2022/08/24 08:54:30;;;;;;;8.77;3.13;;;26.60;50.10;;;27.39;33.19;98848.41;5013232;27;113470;-80
2022/08/24 08:57:14;;;;;;;4.80;2.60;;;26.80;49.30;;;27.41;33.05;98845.94;5012972;28;114525;-83
2022/08/24 09:00:17;;;;;;;3.83;1.80;;;26.80;48.40;;;27.41;32.66;98842.31;5010993;27;123949;-80
2022/08/24 09:03:37;;;;;;;3.63;1.93;;;26.80;48.10;;;27.40;32.67;98841.50;5013354;27;122871;-82
2022/08/24 09:06:25;;;;;;;5.50;2.00;;;26.80;47.80;;;27.46;32.76;98856.03;5016830;28;114289;-81
2022/08/24 09:09:14;;;;;;;5.60;2.00;;;26.90;47.70;;;27.51;32.70;98844.19;5010254;28;114297;-83
2022/08/24 09:11:49;;;;;;;3.87;2.23;;;26.90;47.60;;;27.58;32.20;98851.81;5010866;28;124049;-80
2022/08/24 09:15:05;;;;;;;2.37;2.00;;;27.00;47.70;;;27.60;32.43;98838.81;5013247;28;123846;-85
2022/08/24 09:17:58;;;;;;;5.30;2.13;;;27.00;47.50;;;27.66;32.43;98839.94;5010563;28;115107;-82
2022/08/24 09:21:25;;;;;;;2.73;2.30;;;27.10;47.50;;;27.71;31.99;98830.13;5028817;27;113615;-81
2022/08/24 09:24:24;;;;;;;4.00;2.10;;;27.20;47.10;;;27.75;31.91;98834.53;5013438;28;123910;-81
2022/08/24 09:27:33;;;;;;;6.43;2.30;;;27.20;46.90;;;27.76;31.98;98838.19;5017695;28;123846;-80
2022/08/24 09:30:17;;;;;;;5.50;2.30;;;27.20;46.50;;;27.80;31.89;98826.75;5012940;28;115102;-83
2022/08/24 09:33:05;;;;;;;7.53;2.20;;;27.20;46.40;;;27.81;31.50;98837.72;5013763;28;113861;-84
2022/08/24 09:35:50;;;;;;;3.50;1.73;;;27.20;46.00;;;27.81;31.54;98837.72;5016910;28;125350;-84
2022/08/24 09:38:42;;;;;;;3.83;1.97;;;27.20;46.00;;;27.86;31.46;98836.41;5022339;27;123751;-82
2022/08/24 09:41:56;;;;;;;4.90;2.60;;;27.30;45.80;;;27.92;31.30;98829.03;5010834;28;115604;-81
2022/08/24 09:44:40;;;;;;;5.40;1.70;;;27.40;45.60;;;27.96;30.73;98824.09;5012958;28;114791;-86
2022/08/24 09:47:31;;;;;;;4.60;2.13;;;27.40;44.80;;;28.01;31.01;98831.34;5013805;28;124122;-82
2022/08/24 09:50:28;;;;;;;2.70;1.80;;;27.40;44.80;;;28.08;30.75;98834.06;5012110;28;124358;-82
2022/08/24 09:53:24;;;;;;;3.00;1.83;;;27.50;44.80;;;28.11;30.06;98825.47;5015537;27;114279;-81
2022/08/24 09:56:23;;;;;;;4.97;2.00;;;27.50;43.90;;;28.12;29.92;98831.97;5020836;28;114057;-81
2022/08/24 09:59:23;;;;;;;1.87;1.63;;;27.60;43.20;;;28.15;29.60;98825.41;5018987;28;124113;-80
2022/08/24 10:02:30;;;;;;;4.93;1.93;;;27.60;43.20;;;28.20;29.64;98833.47;5016602;27;124332;-80
2022/08/24 10:05:11;;;;;;;2.07;1.80;;;27.70;42.80;;;28.26;29.50;98826.03;5012184;28;114310;-80
2022/08/24 10:08:02;;;;;;;2.33;1.77;;;27.70;43.00;;;28.30;29.83;98821.13;5026158;28;114092;-82
2022/08/24 10:10:43;;;;;;;7.30;2.20;;;27.80;43.30;;;28.37;29.64;98820.16;5013132;28;122992;-79
2022/08/24 10:13:35;;;;;;;2.77;2.10;;;27.80;43.10;;;28.43;29.50;98818.50;5008572;27;123896;-80
2022/08/24 10:16:29;;;;;;;2.80;2.00;;;27.90;42.80;;;28.46;29.25;98817.63;5011066;28;114235;-83
2022/08/24 10:19:23;;;;;;;3.13;1.90;;;28.00;43.40;;;28.52;29.13;98821.56;5012002;27;114392;-81
2022/08/24 10:22:06;;;;;;;4.90;1.63;;;27.90;42.60;;;28.58;29.25;98813.34;5010444;28;123745;-80
2022/08/24 10:24:42;;;;;;;2.40;2.20;;;28.00;42.70;;;28.65;29.04;98801.84;5013191;28;124134;-79
2022/08/24 10:27:50;;;;;;;3.20;1.80;;;28.10;42.60;;;28.71;29.13;98811.47;5013982;28;113829;-79
2022/08/24 10:30:55;;;;;;;4.07;1.90;;;28.20;42.50;;;28.80;28.56;98802.34;5009137;28;113903;-79
2022/08/24 10:33:27;;;;;;;3.40;1.70;;;28.20;42.00;;;28.90;28.47;98795.66;4997947;28;124514;-78
2022/08/24 10:36:15;;;;;;;3.10;2.13;;;28.30;41.60;;;28.95;28.24;98791.50;5021370;27;123581;-79
2022/08/24 10:45:51;;;;;;;2.27;2.07;;;28.50;41.10;;;29.11;28.62;98785.13;5015093;27;125473;-80
2022/08/24 10:48:34;;;;;;;2.97;2.10;;;28.60;41.50;;;29.20;28.51;98785.31;5010949;28;124165;-80